Time;durP1;ratioP1;P1;durP2;ratioP2;P2;SDS_P1;SDS_P2;PMS_P1;PMS_P2;Temp;Humidity;BMP_temperature;BMP_pressure;BME280_temperature;BME280_humidity;BME280_pressure;Samples;Min_cycle;Max_cycle;Signal;HPM_P1;HPM_P2
2022/12/19 00:04:44;;;;;;;;;;;-4.80;99.90;;;-5.81;100.00;96701.22;10509341;28;2175;-67
2022/12/19 00:09:47;;;;;;;;;;;-3.50;99.90;;;-5.79;100.00;96673.91;10517615;28;2081;-68
2022/12/19 00:14:50;;;;;;;;;;;-4.70;99.90;;;-5.88;100.00;96671.34;10512350;28;2068;-67
2022/12/19 00:19:57;;;;;;;;;;;-4.60;99.90;;;-5.87;100.00;96655.50;10512028;28;2056;-68
2022/12/19 00:25:00;;;;;;;;;;;-4.70;99.90;;;-5.82;100.00;96641.97;10499929;28;2092;-67
2022/12/19 00:30:03;;;;;;;;;;;-4.60;99.90;;;-5.82;100.00;96631.47;10495485;28;2090;-68
2022/12/19 00:35:06;;;;;;;;;;;-4.60;99.90;;;-6.08;100.00;96605.28;10491371;28;1988;-71
2022/12/19 00:40:08;;;;;;;;;;;-4.80;99.90;;;-6.01;100.00;96617.59;10506143;28;2072;-66
2022/12/19 00:45:11;;;;;;;;;;;-4.80;99.90;;;-5.75;100.00;96651.66;10507924;28;2053;-66
2022/12/19 00:50:14;;;;;;;;;;;-4.70;99.90;;;-5.56;100.00;96678.69;10486085;28;2088;-68
2022/12/19 00:55:17;;;;;;;;;;;-4.50;99.90;;;-5.45;100.00;96655.69;10509251;28;2089;-67
2022/12/19 01:00:21;;;;;;;;;;;-4.40;99.90;;;-5.53;100.00;96642.53;10502681;28;2079;-67
2022/12/19 01:05:34;;;;;;;;;;;-4.30;99.90;;;-5.82;100.00;96641.97;10509291;28;2090;-66
2022/12/19 01:10:37;;;;;;;;;;;-4.50;99.90;;;-5.83;100.00;96637.69;10513596;28;2116;-66
2022/12/19 01:15:39;;;;;;;;;;;-4.60;99.90;;;-5.86;100.00;96630.13;10510455;28;2071;-66
2022/12/19 01:20:42;;;;;;;;;;;-4.60;99.90;;;-6.01;100.00;96622.84;10499968;28;1997;-66
2022/12/19 01:25:45;;;;;;;;;;;-4.80;99.90;;;-6.05;100.00;96611.00;10506392;28;2179;-66
2022/12/19 01:30:47;;;;;;;;;;;-4.80;99.90;;;-6.00;100.00;96616.63;10496283;28;2144;-66
2022/12/19 01:35:50;;;;;;;;;;;-4.80;99.90;;;-5.89;100.00;96630.44;10514753;28;2060;-65
2022/12/19 01:40:53;;;;;;;;;;;-4.80;99.90;;;-5.94;100.00;96643.19;10493813;28;2099;-67
2022/12/19 01:45:56;;;;;;;;;;;-4.80;99.90;;;-5.66;100.00;96667.44;10510645;28;2070;-65
2022/12/19 01:50:59;;;;;;;;;;;-4.60;99.90;;;-5.57;100.00;96663.94;10503475;28;2143;-68
2022/12/19 01:56:04;;;;;;;;;;;-4.50;99.90;;;-5.60;100.00;96661.59;10520582;28;2014;-67
2022/12/19 02:01:09;;;;;;;;;;;-4.40;99.90;;;-5.67;100.00;96658.78;10509621;28;2046;-66
2022/12/19 02:06:14;;;;;;;;;;;-4.50;99.90;;;-5.48;100.00;96670.88;10506504;28;2132;-67
2022/12/19 02:11:18;;;;;;;;;;;-4.50;99.90;;;-5.65;100.00;96656.84;10523640;28;2046;-68
2022/12/19 02:16:21;;;;;;;;;;;-4.40;99.90;;;-5.55;100.00;96667.22;10519494;28;1982;-72
2022/12/19 02:21:26;;;;;;;;;;;-4.40;99.90;;;-5.61;100.00;96667.81;10519323;28;2053;-76
2022/12/19 02:26:28;;;;;;;;;;;-4.40;99.90;;;-5.80;100.00;96667.00;10518714;28;2076;-66
2022/12/19 02:31:31;;;;;;;;;;;-4.50;99.90;;;-5.79;100.00;96678.31;10518811;28;2070;-68
2022/12/19 02:36:33;;;;;;;;;;;-4.60;99.90;;;-5.94;100.00;96674.59;10523362;28;2081;-66
2022/12/19 02:41:44;;;;;;;;;;;-4.70;99.90;;;-5.90;100.00;96675.94;10512887;28;2066;-66
2022/12/19 02:46:47;;;;;;;;;;;-4.70;99.90;;;-6.05;100.00;96673.00;10519732;28;2104;-67
2022/12/19 02:51:50;;;;;;;;;;;-4.80;99.90;;;-5.94;100.00;96704.22;10523641;28;2069;-68
2022/12/19 02:56:52;;;;;;;;;;;-4.80;99.90;;;-6.00;100.00;96695.16;10508081;28;2235;-66
2022/12/19 03:01:55;;;;;;;;;;;-4.80;99.90;;;-5.81;100.00;96688.13;10500494;28;2025;-67
2022/12/19 03:06:58;;;;;;;;;;;-4.70;99.90;;;-5.71;100.00;96709.81;10507219;28;2068;-67
2022/12/19 03:12:01;;;;;;;;;;;-4.60;99.90;;;-5.51;100.00;96703.44;10510495;28;2139;-66
2022/12/19 03:17:04;;;;;;;;;;;-4.50;99.90;;;-5.57;100.00;96696.19;10509944;28;2123;-67
2022/12/19 03:22:07;;;;;;;;;;;-4.50;99.90;;;-5.38;100.00;96710.94;10502157;28;2093;-69
2022/12/19 03:27:10;;;;;;;;;;;-4.40;99.90;;;-5.41;100.00;96703.34;10508107;28;2040;-66
2022/12/19 03:32:12;;;;;;;;;;;-4.30;99.90;;;-5.37;100.00;96702.09;10510931;28;2106;-67
2022/12/19 03:37:15;;;;;;;;;;;-4.30;99.90;;;-5.42;100.00;96712.19;10511869;28;2111;-69
2022/12/19 03:47:39;;;;;;;;;;;-4.20;99.90;;;-5.07;100.00;96719.19;10503891;28;2080;-67
2022/12/19 03:52:41;;;;;;;;;;;-4.10;99.90;;;-5.07;100.00;96715.75;10509966;28;2081;-71
2022/12/19 03:57:44;;;;;;;;;;;-4.00;99.90;;;-5.19;100.00;96709.94;10504625;28;2068;-66
2022/12/19 04:02:50;;;;;;;;;;;-4.00;99.90;;;-5.30;100.00;96716.22;10496478;28;2019;-66
2022/12/19 04:08:01;;;;;;;;;;;-4.10;99.90;;;-5.24;100.00;96662.38;10507467;28;1994;-67
2022/12/19 04:13:04;;;;;;;;;;;-4.00;99.90;;;-5.41;100.00;96674.53;10519341;28;2007;-66
2022/12/19 04:18:06;;;;;;;;;;;-4.20;99.90;;;-5.11;100.00;96730.13;10505653;28;2074;-67
2022/12/19 04:23:09;;;;;;;;;;;-4.10;99.90;;;-5.04;100.00;96726.75;10503488;28;2333;-67
2022/12/19 04:28:13;;;;;;;;;;;-4.00;99.90;;;-4.92;100.00;96711.59;10504472;28;2224;-67
2022/12/19 04:33:16;;;;;;;;;;;-3.90;99.90;;;-4.74;100.00;96743.00;10506015;28;2001;-66
2022/12/19 04:38:19;;;;;;;;;;;-3.80;99.90;;;-4.58;100.00;96752.75;10506642;28;2008;-66
2022/12/19 04:43:22;;;;;;;;;;;-3.60;99.90;;;-4.51;100.00;96704.78;10520666;28;2331;-66
2022/12/19 04:48:24;;;;;;;;;;;-3.40;99.90;;;-4.56;100.00;96693.09;10495873;28;2084;-67
2022/12/19 04:53:27;;;;;;;;;;;-3.40;99.90;;;-4.33;100.00;96709.09;10499448;28;2125;-66
2022/12/19 04:58:30;;;;;;;;;;;-3.30;99.90;;;-4.41;100.00;96662.66;10519669;28;2106;-68
2022/12/19 05:03:33;;;;;;;;;;;-3.20;99.90;;;-4.64;100.00;96696.50;10505978;28;2085;-67
2022/12/19 05:08:36;;;;;;;;;;;-3.30;99.90;;;-4.35;100.00;96709.25;10505509;28;2018;-68
2022/12/19 05:13:38;;;;;;;;;;;-3.30;99.90;;;-4.22;100.00;96690.44;10504173;28;2080;-66
2022/12/19 05:18:41;;;;;;;;;;;-3.20;99.90;;;-4.21;100.00;96707.84;10516919;28;2102;-67
2022/12/19 05:23:44;;;;;;;;;;;-3.10;99.90;;;-4.07;100.00;96704.63;10511229;28;2323;-66
2022/12/19 05:28:47;;;;;;;;;;;-3.00;99.90;;;-3.95;100.00;96698.06;10511463;28;1981;-68
2022/12/19 05:33:50;;;;;;;;;;;-2.90;99.90;;;-3.81;100.00;96723.72;10496514;28;2013;-67
2022/12/19 05:38:53;;;;;;;;;;;-2.90;99.90;;;-3.72;100.00;96727.19;10504776;28;2121;-67
2022/12/19 05:43:56;;;;;;;;;;;-2.70;99.90;;;-3.61;100.00;96711.13;10508055;28;2168;-72
2022/12/19 05:49:01;;;;;;;;;;;-2.60;99.90;;;-3.65;100.00;96714.22;10528556;28;2036;-71
2022/12/19 05:54:04;;;;;;;;;;;-2.50;99.90;;;-3.56;100.00;96706.22;10515863;28;2189;-74
2022/12/19 05:59:07;;;;;;;;;;;-2.50;99.90;;;-3.53;100.00;96700.59;10519078;28;2158;-71
2022/12/19 06:04:09;;;;;;;;;;;-2.40;99.90;;;-3.45;100.00;96710.31;10497199;28;2181;-67
2022/12/19 06:09:12;;;;;;;;;;;-2.40;99.90;;;-3.40;100.00;96689.59;10528743;28;2025;-69
2022/12/19 06:14:15;;;;;;;;;;;-2.30;99.90;;;-3.36;100.00;96683.03;10520587;28;2100;-67
2022/12/19 06:19:18;;;;;;;;;;;-2.30;99.90;;;-3.33;100.00;96702.91;10521043;28;2081;-67
2022/12/19 06:24:21;;;;;;;;;;;-2.20;99.90;;;-3.30;100.00;96707.88;10517554;28;2018;-69
2022/12/19 06:29:23;;;;;;;;;;;-2.20;99.90;;;-3.29;100.00;96707.69;10523069;28;2070;-68
2022/12/19 06:34:26;;;;;;;;;;;-2.20;99.90;;;-3.35;100.00;96703.09;10523193;28;2063;-67
2022/12/19 06:39:49;;;;;;;;;;;-2.10;99.90;;;-3.31;100.00;96712.31;10518593;28;2081;-69
2022/12/19 06:44:52;;;;;;;;;;;-2.20;99.90;;;-3.33;100.00;96726.59;10518884;28;2088;-68
2022/12/19 06:50:02;;;;;;;;;;;-2.20;99.90;;;-3.28;100.00;96711.97;10521341;28;2120;-68
2022/12/19 06:55:05;;;;;;;;;;;-2.20;99.90;;;-3.39;100.00;96700.94;10512708;28;2069;-67
2022/12/19 07:00:07;;;;;;;;;;;-2.10;99.90;;;-3.36;100.00;96703.25;10511375;28;2073;-68
2022/12/19 07:05:10;;;;;;;;;;;-2.20;99.90;;;-3.15;100.00;96702.75;10530472;28;2053;-67
2022/12/19 07:10:14;;;;;;;;;;;-2.20;99.90;;;-3.13;100.00;96706.03;10538554;28;2091;-69
2022/12/19 07:15:17;;;;;;;;;;;-2.10;99.90;;;-3.10;100.00;96708.34;10510672;28;2055;-70
2022/12/19 07:20:20;;;;;;;;;;;-2.00;99.90;;;-2.95;100.00;96709.31;10518886;28;2013;-71
2022/12/19 07:25:22;;;;;;;;;;;-1.90;99.90;;;-2.92;100.00;96716.06;10525544;28;2098;-70
2022/12/19 07:30:28;;;;;;;;;;;-1.80;99.90;;;-2.77;100.00;96709.94;10513833;28;2070;-69
2022/12/19 07:35:31;;;;;;;;;;;-1.80;99.90;;;-2.56;100.00;96714.66;10526967;28;2239;-69
2022/12/19 07:40:34;;;;;;;;;;;-1.60;99.90;;;-2.35;100.00;96722.03;10513640;28;2398;-70
2022/12/19 07:45:37;;;;;;;;;;;-1.30;99.90;;;-2.11;100.00;96712.38;10520851;28;2103;-70
2022/12/19 07:50:41;;;;;;;;;;;-1.20;99.90;;;-1.94;100.00;96713.94;10510400;28;2397;-72
2022/12/19 07:55:44;;;;;;;;;;;;;;;-1.70;100.00;96713.00;10514542;28;2045;-72
2022/12/19 08:00:47;;;;;;;;;;;-0.80;99.90;;;-1.56;100.00;96704.34;10509039;28;2474;-72
2022/12/19 08:05:49;;;;;;;;;;;-0.60;99.90;;;-1.55;100.00;96710.44;10512896;28;1971;-73
2022/12/19 08:10:52;;;;;;;;;;;-0.50;99.90;;;-1.51;100.00;96714.38;10516842;28;2045;-72
2022/12/19 08:15:55;;;;;;;;;;;-0.40;99.90;;;-1.53;100.00;96708.44;10513971;28;2002;-71
2022/12/19 08:20:58;;;;;;;;;;;-0.40;99.90;;;-1.41;100.00;96699.13;10513743;28;2413;-71
2022/12/19 08:26:01;;;;;;;;;;;-0.40;99.90;;;-1.41;100.00;96697.31;10514143;28;2048;-72
2022/12/19 08:31:05;;;;;;;;;;;-0.30;99.90;;;-1.27;100.00;96682.53;10518397;28;2028;-73
2022/12/19 08:36:08;;;;;;;;;;;-0.10;99.90;;;-0.90;100.00;96673.78;10522125;28;2087;-73
2022/12/19 08:41:11;;;;;;;;;;;0.00;99.90;;;-0.48;100.00;96661.00;10514296;28;2044;-71
2022/12/19 08:46:14;;;;;;;;;;;0.40;99.90;;;-0.14;100.00;96669.16;10514697;28;1988;-74
2022/12/19 08:51:17;;;;;;;;;;;0.70;99.90;;;0.09;100.00;96662.94;10516299;28;2037;-71
2022/12/19 08:56:19;;;;;;;;;;;1.00;99.90;;;0.45;100.00;96658.44;10517547;28;2039;-70
2022/12/19 09:01:24;;;;;;;;;;;1.30;99.90;;;0.48;100.00;96646.66;10519314;28;1981;-70
2022/12/19 09:06:27;;;;;;;;;;;1.60;99.90;;;0.59;100.00;96637.41;10517519;28;2125;-70
2022/12/19 09:11:31;;;;;;;;;;;1.70;99.90;;;0.88;100.00;96615.25;10516266;28;2242;-71
2022/12/19 09:16:33;;;;;;;;;;;1.80;99.90;;;0.68;100.00;96607.97;10491070;28;2293;-72
2022/12/19 09:21:36;;;;;;;;;;;1.80;99.90;;;0.83;100.00;96623.78;10505486;28;2066;-70
2022/12/19 09:26:40;;;;;;;;;;;1.80;99.90;;;0.92;100.00;96637.69;10504441;28;2022;-71
2022/12/19 09:31:43;;;;;;;;;;;2.10;99.90;;;1.34;100.00;96637.59;10514191;28;2261;-71
2022/12/19 09:36:46;;;;;;;;;;;2.40;99.90;;;1.88;100.00;96641.31;10530068;28;2398;-71
2022/12/19 09:41:50;;;;;;;;;;;2.40;99.90;;;2.05;100.00;96633.84;10526022;28;2056;-71
2022/12/19 09:46:53;;;;;;;;;;;2.80;99.90;;;2.14;100.00;96633.44;10508389;28;1999;-72
2022/12/19 09:51:55;;;;;;;;;;;3.10;99.90;;;1.74;100.00;96636.97;10517135;28;2110;-71
2022/12/19 09:56:58;;;;;;;;;;;2.80;99.90;;;1.75;100.00;96631.47;10527899;28;2072;-71
2022/12/19 10:02:01;;;;;;;;;;;2.70;99.90;;;1.75;100.00;96638.59;10517347;28;2064;-73
2022/12/19 10:07:04;;;;;;;;;;;2.70;99.90;;;1.90;100.00;96618.88;10518531;28;2120;-72
2022/12/19 10:12:27;;;;;;;;;;;2.80;99.90;;;2.18;100.00;96623.28;10513964;28;2098;-72
2022/12/19 10:17:50;;;;;;;;;;;3.00;99.90;;;1.95;100.00;96623.59;10526985;28;2297;-72
2022/12/19 10:22:53;;;;;;;;;;;3.10;99.90;;;2.05;100.00;96634.66;10511933;28;2086;-71
2022/12/19 10:27:56;;;;;;;;;;;3.00;99.90;;;2.44;100.00;96633.94;10519167;28;2254;-70
2022/12/19 10:33:01;;;;;;;;;;;3.00;99.90;;;2.34;100.00;96620.22;10520852;28;2188;-72
2022/12/19 10:38:04;;;;;;;;;;;3.10;99.90;;;2.14;100.00;96611.41;10522843;28;2072;-72
2022/12/19 10:43:07;;;;;;;;;;;;;;;2.09;100.00;96604.06;10503758;28;2024;-71
2022/12/19 10:48:13;;;;;;;;;;;3.00;99.90;;;1.72;100.00;96592.13;10520891;28;2068;-71
2022/12/19 10:53:16;;;;;;;;;;;2.80;99.90;;;1.61;100.00;96579.44;10518224;28;1994;-71
2022/12/19 10:58:21;;;;;;;;;;;2.70;99.90;;;1.51;100.00;96563.88;10514063;28;2172;-70
2022/12/19 11:03:28;;;;;;;;;;;2.70;99.90;;;1.52;100.00;96551.44;10505030;28;2048;-72
2022/12/19 11:08:31;;;;;;;;;;;2.60;99.90;;;1.60;100.00;96535.41;10499329;28;2047;-74
2022/12/19 11:13:35;;;;;;;;;;;2.60;99.90;;;1.56;100.00;96534.97;10503210;28;2303;-72
2022/12/19 11:18:57;;;;;;;;;;;2.70;99.90;;;1.90;100.00;96551.78;10519490;28;2042;-72
2022/12/19 11:24:20;;;;;;;;;;;2.70;99.90;;;2.31;100.00;96538.41;10515154;28;2080;-70
2022/12/19 11:29:43;;;;;;;;;;;3.10;99.90;;;2.66;100.00;96536.34;10516505;28;2058;-72
2022/12/19 11:35:05;;;;;;;;;;;3.30;99.90;;;2.88;100.00;96512.25;10516153;28;2109;-70
2022/12/19 11:40:11;;;;;;;;;;;3.70;99.90;;;2.71;100.00;96509.19;10517394;28;2034;-71
2022/12/19 11:45:14;;;;;;;;;;;;;;;2.98;100.00;96507.31;10507544;28;1997;-72
2022/12/19 11:50:17;;;;;;;;;;;;;;;3.19;100.00;96503.59;10515417;28;2096;-71
2022/12/19 11:55:20;;;;;;;;;;;;;;;3.39;100.00;96508.84;10524454;28;2073;-72
2022/12/19 12:00:24;;;;;;;;;;;;;;;3.10;100.00;96515.47;10513645;28;2090;-72
2022/12/19 12:05:33;;;;;;;;;;;;;;;3.23;100.00;96515.41;10522343;27;2045;-70
2022/12/19 12:10:36;;;;;;;;;;;;;;;3.07;100.00;96510.59;10516424;28;2018;-73
2022/12/19 12:15:59;;;;;;;;;;;;;;;2.86;100.00;96508.97;10511549;28;2294;-71
2022/12/19 12:21:22;;;;;;;;;;;;;;;2.34;100.00;96500.84;10514429;28;1944;-73
2022/12/19 12:26:46;;;;;;;;;;;;;;;2.38;100.00;96501.25;10517435;28;1972;-70
2022/12/19 12:32:16;;;;;;;;;;;;;;;2.48;100.00;96500.84;10519809;28;2178;-70
2022/12/19 12:37:41;;;;;;;;;;;;;;;2.17;100.00;96511.06;10514797;28;2008;-72
2022/12/19 12:43:04;;;;;;;;;;;;;;;2.09;100.00;96507.75;10505197;28;2114;-73
2022/12/19 12:48:08;;;;;;;;;;;;;;;2.24;100.00;96511.06;10517526;28;2074;-71
2022/12/19 12:53:11;;;;;;;;;;;;;;;2.38;100.00;96501.25;10513683;28;2007;-72
2022/12/19 12:58:18;;;;;;;;;;;;;;;2.34;100.00;96490.22;10505476;28;2113;-71
2022/12/19 13:03:26;;;;;;;;;;;;;;;2.36;100.00;96492.69;10505401;28;1992;-74
2022/12/19 13:08:29;;;;;;;;;;;;;;;2.41;100.00;96492.88;10499180;28;2121;-73
2022/12/19 13:13:33;;;;;;;;;;;;;;;2.53;100.00;96493.09;10488134;28;2046;-72
2022/12/19 13:18:40;;;;;;;;;;;;;;;2.50;100.00;96488.19;10472964;28;2315;-71
2022/12/19 13:23:43;;;;;;;;;;;;;;;2.14;100.00;96484.09;10482708;28;2069;-71
2022/12/19 13:28:47;;;;;;;;;;;;;;;1.94;100.00;96494.69;10471016;28;2189;-69
2022/12/19 13:33:52;;;;;;;;;;;;;;;1.78;100.00;96493.25;10470561;28;2058;-71
2022/12/19 13:38:59;;;;;;;;;;;;;;;1.67;100.00;96463.84;10481091;28;1997;-71
2022/12/19 13:44:22;;;;;;;;;;;;;;;1.22;100.00;96466.97;10479117;28;2203;-71
2022/12/19 13:49:25;;;;;;;;;;;;;;;1.12;100.00;96468.34;10472756;28;2001;-72
2022/12/19 13:54:53;;;;;;;;;;;;;;;1.07;100.00;96463.63;10512287;28;2109;-70
2022/12/19 13:59:58;;;;;;;;;;;;;;;1.08;100.00;96471.41;10530002;28;2136;-72
2022/12/19 14:05:03;;;;;;;;;;;;;;;1.11;100.00;96482.63;10524475;28;2520;-74
2022/12/19 14:10:06;;;;;;;;;;;;;;;1.14;100.00;96492.78;10517560;28;2085;-71
2022/12/19 14:15:29;;;;;;;;;;;;;;;1.05;100.00;96492.16;10529324;28;2102;-71
2022/12/19 14:20:32;;;;;;;;;;;;;;;1.10;100.00;96502.16;10525315;28;2089;-71
2022/12/19 14:25:55;;;;;;;;;;;;;;;1.06;100.00;96499.06;10493875;28;2101;-71
2022/12/19 14:31:18;;;;;;;;;;;;;;;1.03;100.00;96505.59;10525209;28;2063;-70
2022/12/19 14:36:22;;;;;;;;;;;;;;;0.96;100.00;96512.69;10531145;28;2379;-72
2022/12/19 14:46:46;;;;;;;;;;;;;;;0.74;100.00;96503.16;10575664;27;2048;-72
2022/12/19 14:52:09;;;;;;;;;;;;;;;0.72;100.00;96506.03;10563792;27;2073;-73
2022/12/19 14:57:33;;;;;;;;;;;;;;;0.60;100.00;96507.56;10562390;28;1977;-73
2022/12/19 15:02:56;;;;;;;;;;;;;;;0.51;100.00;96492.84;10565302;28;2015;-72
2022/12/19 15:08:00;;;;;;;;;;;;;;;0.25;100.00;96491.66;10564193;28;2089;-71
2022/12/19 15:13:24;;;;;;;;;;;;;;;0.16;100.00;96497.25;10557815;28;2440;-71
2022/12/19 15:18:48;;;;;;;;;;;;;;;0.13;100.00;96484.44;10571548;28;2113;-72
2022/12/19 15:23:51;;;;;;;;;;;;;;;0.03;100.00;96490.03;10563593;27;1993;-73
2022/12/19 15:28:55;;;;;;;;;;;;;;;-0.05;100.00;96503.38;10559167;27;2008;-72
2022/12/19 15:33:58;;;;;;;;;;;;;;;-0.07;100.00;96506.19;10564751;27;1999;-72
2022/12/19 15:39:21;;;;;;;;;;;;;;;-0.21;100.00;96499.16;10560019;27;1993;-73
2022/12/19 15:44:28;;;;;;;;;;;;;;;-0.24;100.00;96506.66;10557720;27;2121;-75
2022/12/19 15:49:33;;;;;;;;;;;;;;;-0.16;100.00;96496.75;10564216;27;2043;-72
2022/12/19 15:54:37;;;;;;;;;;;;;;;-0.22;100.00;96508.09;10569552;28;1991;-74
2022/12/19 15:59:51;;;;;;;;;;;;;;;-0.29;100.00;96504.56;10557481;28;2043;-72
2022/12/19 16:04:55;;;;;;;;;;;;;;;-0.30;100.00;96511.66;10559917;28;2191;-73
2022/12/19 16:10:06;;;;;;;;;;;;;;;-0.26;100.00;96506.81;10558775;28;2219;-74
2022/12/19 16:15:09;;;;;;;;;;;;;;;-0.24;100.00;96504.00;10562463;28;2065;-73
2022/12/19 16:20:13;;;;;;;;;;;;;;;-0.28;100.00;96503.53;10552962;28;2070;-73
2022/12/19 16:25:16;;;;;;;;;;;;;;;-0.28;100.00;96507.00;10550434;28;2096;-73
2022/12/19 16:30:19;;;;;;;;;;;;;;;-0.41;100.00;96524.53;10555991;28;2054;-72
2022/12/19 16:35:23;;;;;;;;;;;;;;;-0.48;100.00;96526.28;10554191;28;2207;-73
2022/12/19 16:40:46;;;;;;;;;;;;;;;-0.53;100.00;96533.94;10555844;28;2072;-72
2022/12/19 16:45:49;;;;;;;;;;;0.60;99.90;;;-0.49;100.00;96516.75;10559052;28;2007;-70
2022/12/19 16:50:52;;;;;;;;;;;0.70;99.90;;;-0.53;100.00;96521.56;10568261;28;2172;-69
2022/12/19 16:55:55;;;;;;;;;;;0.70;99.90;;;-0.54;100.00;96530.50;10576351;27;2066;-71
2022/12/19 17:00:57;;;;;;;;;;;0.70;99.90;;;-0.68;100.00;96524.25;10568746;27;2040;-70
2022/12/19 17:06:00;;;;;;;;;;;0.60;99.90;;;-0.75;100.00;96523.34;10539923;27;2036;-69
2022/12/19 17:11:06;;;;;;;;;;;0.50;99.90;;;-0.67;100.00;96517.13;10573234;27;2071;-69
2022/12/19 17:16:09;;;;;;;;;;;0.50;99.90;;;-0.78;100.00;96518.41;10564885;27;2064;-69
2022/12/19 17:21:11;;;;;;;;;;;0.50;99.90;;;-0.73;100.00;96513.41;10566141;27;2116;-69
2022/12/19 17:26:14;;;;;;;;;;;0.50;99.90;;;-0.72;100.00;96517.69;10563921;27;2084;-69
2022/12/19 17:31:19;;;;;;;;;;;1.20;99.90;;;-0.74;100.00;96517.06;10557602;27;2099;-69
2022/12/19 17:36:23;;;;;;;;;;;0.50;99.90;;;-0.58;100.00;96506.25;10547474;27;2074;-70
2022/12/19 17:41:34;;;;;;;;;;;0.50;99.90;;;-0.62;100.00;96510.28;10561473;28;2146;-70
2022/12/19 17:46:37;;;;;;;;;;;0.50;99.90;;;-0.50;100.00;96494.78;10560396;27;2079;-70
2022/12/19 17:51:39;;;;;;;;;;;0.60;99.90;;;-0.47;100.00;96499.69;10570294;28;2154;-68
2022/12/19 17:56:42;;;;;;;;;;;2.10;99.90;;;-0.34;100.00;96499.00;10563175;28;2063;-70
2022/12/19 18:01:46;;;;;;;;;;;0.80;99.90;;;-0.42;100.00;96497.31;10566996;28;2108;-72
2022/12/19 18:06:51;;;;;;;;;;;0.80;99.90;;;-0.28;100.00;96487.69;10565183;28;1980;-75
2022/12/19 18:11:54;;;;;;;;;;;1.00;99.90;;;-0.28;100.00;96491.16;10561006;28;2135;-70
2022/12/19 18:16:57;;;;;;;;;;;0.80;99.90;;;-0.23;100.00;96477.38;10564329;28;2031;-70
2022/12/19 18:27:07;;;;;;;;;;;1.20;99.90;;;0.02;100.00;96482.28;10563509;28;2031;-71
2022/12/19 18:32:10;;;;;;;;;;;1.20;99.90;;;0.01;100.00;96492.03;10565050;28;2075;-71
2022/12/19 18:37:13;;;;;;;;;;;1.10;99.90;;;0.14;100.00;96467.56;10569932;28;1977;-68
2022/12/19 18:42:15;;;;;;;;;;;1.20;99.90;;;0.15;100.00;96450.69;10564521;28;2314;-69
2022/12/19 18:47:18;;;;;;;;;;;1.30;99.90;;;0.18;100.00;96442.34;10565426;28;2098;-66
2022/12/19 18:52:21;;;;;;;;;;;1.30;99.90;;;0.18;100.00;96437.06;10565718;28;2486;-72
2022/12/19 18:57:24;;;;;;;;;;;1.30;99.90;;;0.28;100.00;96444.66;10561522;28;1938;-68
2022/12/19 19:02:26;;;;;;;;;;;1.40;99.90;;;0.21;100.00;96442.78;10563016;28;1980;-69
2022/12/19 19:07:30;;;;;;;;;;;1.30;99.90;;;0.18;100.00;96423.84;10567830;28;2486;-69
2022/12/19 19:12:33;;;;;;;;;;;1.40;99.90;;;0.19;100.00;96425.47;10564661;28;2476;-67
2022/12/19 19:17:37;;;;;;;;;;;1.20;99.90;;;0.16;100.00;96441.72;10545317;28;2299;-69
2022/12/19 19:22:40;;;;;;;;;;;1.30;99.90;;;0.13;100.00;96445.59;10561755;28;2257;-76
2022/12/19 19:27:43;;;;;;;;;;;1.40;99.90;;;0.22;100.00;96440.97;10564174;28;2008;-69
2022/12/19 19:37:52;;;;;;;;;;;1.30;99.90;;;0.04;100.00;96432.69;10564484;28;2325;-70
2022/12/19 19:42:55;;;;;;;;;;;1.30;99.90;;;0.10;100.00;96439.84;10558186;28;2264;-71
2022/12/19 19:47:58;;;;;;;;;;;1.30;99.90;;;0.04;100.00;96435.31;10557527;28;2347;-70
2022/12/19 19:53:00;;;;;;;;;;;1.20;99.90;;;-0.05;100.00;96435.47;10555017;28;2291;-68
2022/12/19 19:58:04;;;;;;;;;;;1.20;99.90;;;-0.07;100.00;96432.19;10560071;28;1986;-69
2022/12/19 20:03:06;;;;;;;;;;;1.10;99.90;;;-0.17;100.00;96434.34;10563839;28;2312;-68
2022/12/19 20:08:12;;;;;;;;;;;1.00;99.90;;;-0.22;100.00;96438.56;10556267;28;2229;-69
2022/12/19 20:13:15;;;;;;;;;;;1.00;99.90;;;-0.20;100.00;96441.81;10558643;28;2677;-71
2022/12/19 20:18:18;;;;;;;;;;;0.90;99.90;;;-0.21;100.00;96434.91;10556819;28;2285;-70
2022/12/19 20:23:20;;;;;;;;;;;2.30;99.90;;;-0.36;100.00;96429.72;10551610;28;2189;-70
2022/12/19 20:28:23;;;;;;;;;;;0.80;99.90;;;-0.15;100.00;96429.69;10566474;28;2336;-70
2022/12/19 20:33:25;;;;;;;;;;;0.80;99.90;;;-0.15;100.00;96445.53;10564678;28;1985;-71
2022/12/19 20:38:28;;;;;;;;;;;0.90;99.90;;;-0.11;100.00;96446.00;10564533;28;2219;-69
2022/12/19 20:43:31;;;;;;;;;;;0.90;99.90;;;-0.17;100.00;96437.00;10562451;28;2359;-68
2022/12/19 20:48:33;;;;;;;;;;;1.00;99.90;;;-0.17;100.00;96431.72;10566027;28;2329;-71
2022/12/19 20:53:36;;;;;;;;;;;0.90;99.90;;;-0.26;100.00;96427.53;10570439;28;2264;-69
2022/12/19 20:58:49;;;;;;;;;;;0.90;99.90;;;-0.21;100.00;96427.81;10571470;28;2341;-77
2022/12/19 21:03:52;;;;;;;;;;;0.80;99.90;;;-0.23;100.00;96421.91;10564349;28;2321;-70
2022/12/19 21:08:55;;;;;;;;;;;0.90;99.90;;;-0.22;100.00;96423.53;10561294;28;2052;-69
2022/12/19 21:13:58;;;;;;;;;;;0.90;99.90;;;0.05;100.00;96415.81;10562593;28;2362;-69
2022/12/19 21:19:00;;;;;;;;;;;0.90;99.90;;;-0.11;100.00;96425.66;10559302;28;2284;-69
2022/12/19 21:24:03;;;;;;;;;;;1.00;99.90;;;-0.07;100.00;96424.25;10559119;28;2288;-68
2022/12/19 21:29:06;;;;;;;;;;;1.00;99.90;;;-0.16;100.00;96419.31;10557923;28;2336;-70
2022/12/19 21:34:09;;;;;;;;;;;1.00;99.90;;;-0.10;100.00;96423.84;10569788;28;2300;-69
2022/12/19 21:39:11;;;;;;;;;;;1.00;99.90;;;-0.15;100.00;96424.41;10568275;28;2352;-69
2022/12/19 21:44:14;;;;;;;;;;;1.00;99.90;;;-0.12;100.00;96418.75;10567491;28;2345;-69
2022/12/19 21:49:17;;;;;;;;;;;0.90;99.90;;;-0.12;100.00;96426.69;10572008;27;2485;-68
2022/12/19 21:54:20;;;;;;;;;;;0.90;99.90;;;-0.16;100.00;96438.63;10571242;28;2297;-75
2022/12/19 21:59:22;;;;;;;;;;;0.90;99.90;;;-0.14;100.00;96436.59;10571787;28;2018;-76
2022/12/19 22:04:26;;;;;;;;;;;0.80;99.90;;;-0.17;100.00;96430.91;10562130;28;2419;-70
2022/12/19 22:09:29;;;;;;;;;;;0.90;99.90;;;-0.02;100.00;96423.69;10543265;28;2321;-71
2022/12/19 22:14:32;;;;;;;;;;;0.90;99.90;;;-0.09;100.00;96417.53;10557056;28;2278;-69
2022/12/19 22:19:34;;;;;;;;;;;0.90;99.90;;;-0.15;100.00;96419.13;10555786;28;2337;-68
2022/12/19 22:24:37;;;;;;;;;;;0.90;99.90;;;-0.10;100.00;96400.88;10555867;27;2324;-70
2022/12/19 22:29:40;;;;;;;;;;;1.00;99.90;;;-0.02;100.00;96405.19;10554791;28;2307;-70
2022/12/19 22:34:43;;;;;;;;;;;1.00;99.90;;;0.09;100.00;96396.75;10554044;28;2365;-69
2022/12/19 22:39:45;;;;;;;;;;;1.10;99.90;;;0.30;100.00;96397.69;10561995;28;1985;-69
2022/12/19 22:44:48;;;;;;;;;;;1.10;99.90;;;0.25;100.00;96406.19;10566494;28;2382;-70
2022/12/19 22:49:51;;;;;;;;;;;1.30;99.90;;;0.28;100.00;96399.72;10564980;28;2056;-70
2022/12/19 22:54:54;;;;;;;;;;;1.20;99.90;;;0.26;100.00;96400.72;10562642;28;2004;-71
2022/12/19 22:59:56;;;;;;;;;;;1.30;99.90;;;0.30;100.00;96395.84;10566430;28;1919;-70
2022/12/19 23:04:59;;;;;;;;;;;1.30;99.90;;;0.38;100.00;96392.22;10568884;27;2339;-71
2022/12/19 23:10:02;;;;;;;;;;;1.30;99.90;;;0.35;100.00;96398.75;10557222;28;2494;-71
2022/12/19 23:15:05;;;;;;;;;;;1.30;99.90;;;0.33;100.00;96387.56;10550004;28;2380;-69
2022/12/19 23:20:09;;;;;;;;;;;1.30;99.90;;;0.30;100.00;96381.81;10555731;28;2030;-70
2022/12/19 23:25:21;;;;;;;;;;;1.30;99.90;;;0.25;100.00;96382.38;10559105;28;2350;-70
2022/12/19 23:30:24;;;;;;;;;;;1.20;99.90;;;0.21;100.00;96381.16;10567529;28;2307;-70
2022/12/19 23:35:27;;;;;;;;;;;1.20;99.90;;;0.21;100.00;96381.97;10560270;28;1961;-71
2022/12/19 23:40:29;;;;;;;;;;;1.30;99.90;;;0.24;100.00;96375.47;10556558;28;2333;-70
2022/12/19 23:45:33;;;;;;;;;;;1.30;99.90;;;0.26;100.00;96373.47;10566384;27;2361;-69
2022/12/19 23:50:36;;;;;;;;;;;1.30;99.90;;;0.20;100.00;96369.78;10558681;28;2332;-71
2022/12/19 23:55:38;;;;;;;;;;;1.30;99.90;;;0.18;100.00;96360.38;10571142;28;2265;-74
